sensor_id;sensor_type;location;lat;lon;timestamp;pressure;altitude;pressure_sealevel;temperature;humidity
41706;BME280;27385;51.096;17.190;2022-11-14T00:02:25;101290.92;;;3.45;95.00
41706;BME280;27385;51.096;17.190;2022-11-14T00:04:56;101286.42;;;3.47;94.98
41706;BME280;27385;51.096;17.190;2022-11-14T00:07:30;101286.25;;;3.49;94.99
41706;BME280;27385;51.096;17.190;2022-11-14T00:10:02;101284.90;;;3.50;94.96
41706;BME280;27385;51.096;17.190;2022-11-14T00:12:33;101281.34;;;3.50;94.90
41706;BME280;27385;51.096;17.190;2022-11-14T00:15:06;101276.70;;;3.50;94.88
41706;BME280;27385;51.096;17.190;2022-11-14T00:17:39;101276.45;;;3.51;95.02
41706;BME280;27385;51.096;17.190;2022-11-14T00:20:12;101279.61;;;3.50;95.08
41706;BME280;27385;51.096;17.190;2022-11-14T00:22:44;101279.55;;;3.49;95.10
41706;BME280;27385;51.096;17.190;2022-11-14T00:25:15;101282.14;;;3.50;95.22
41706;BME280;27385;51.096;17.190;2022-11-14T00:27:47;101281.34;;;3.50;95.21
41706;BME280;27385;51.096;17.190;2022-11-14T00:30:19;101284.66;;;3.49;95.04
41706;BME280;27385;51.096;17.190;2022-11-14T00:32:50;101283.02;;;3.47;95.19
41706;BME280;27385;51.096;17.190;2022-11-14T00:35:23;101288.94;;;3.48;95.35
41706;BME280;27385;51.096;17.190;2022-11-14T00:37:54;101292.00;;;3.48;95.30
41706;BME280;27385;51.096;17.190;2022-11-14T00:40:26;101294.77;;;3.49;95.36
41706;BME280;27385;51.096;17.190;2022-11-14T00:42:57;101291.60;;;3.51;95.42
41706;BME280;27385;51.096;17.190;2022-11-14T00:45:29;101287.66;;;3.51;95.39
41706;BME280;27385;51.096;17.190;2022-11-14T00:48:01;101286.55;;;3.51;95.46
41706;BME280;27385;51.096;17.190;2022-11-14T00:50:32;101286.39;;;3.50;95.44
41706;BME280;27385;51.096;17.190;2022-11-14T00:53:04;101282.21;;;3.51;95.54
41706;BME280;27385;51.096;17.190;2022-11-14T00:55:35;101282.84;;;3.52;95.61
41706;BME280;27385;51.096;17.190;2022-11-14T00:58:08;101274.64;;;3.52;95.56
41706;BME280;27385;51.096;17.190;2022-11-14T01:00:40;101274.00;;;3.51;95.59
41706;BME280;27385;51.096;17.190;2022-11-14T01:03:11;101271.23;;;3.53;95.73
41706;BME280;27385;51.096;17.190;2022-11-14T01:05:44;101275.42;;;3.51;95.60
41706;BME280;27385;51.096;17.190;2022-11-14T01:08:17;101279.21;;;3.50;95.72
41706;BME280;27385;51.096;17.190;2022-11-14T01:10:51;101270.70;;;3.50;95.77
41706;BME280;27385;51.096;17.190;2022-11-14T01:13:22;101270.86;;;3.50;95.91
41706;BME280;27385;51.096;17.190;2022-11-14T01:15:54;101274.71;;;3.51;95.86
41706;BME280;27385;51.096;17.190;2022-11-14T01:18:25;101275.34;;;3.51;95.92
41706;BME280;27385;51.096;17.190;2022-11-14T01:20:57;101273.30;;;3.51;95.92
41706;BME280;27385;51.096;17.190;2022-11-14T01:23:29;101265.86;;;3.54;96.17
41706;BME280;27385;51.096;17.190;2022-11-14T01:26:06;101269.39;;;3.57;96.27
41706;BME280;27385;51.096;17.190;2022-11-14T01:28:38;101265.34;;;3.59;96.07
41706;BME280;27385;51.096;17.190;2022-11-14T01:31:16;101263.13;;;3.59;96.07
41706;BME280;27385;51.096;17.190;2022-11-14T01:33:49;101255.86;;;3.60;96.09
41706;BME280;27385;51.096;17.190;2022-11-14T01:36:21;101254.61;;;3.60;96.40
41706;BME280;27385;51.096;17.190;2022-11-14T01:38:54;101250.77;;;3.64;96.51
41706;BME280;27385;51.096;17.190;2022-11-14T01:41:25;101255.19;;;3.66;96.35
41706;BME280;27385;51.096;17.190;2022-11-14T01:43:56;101245.66;;;3.63;96.24
41706;BME280;27385;51.096;17.190;2022-11-14T01:46:30;101238.34;;;3.62;96.23
41706;BME280;27385;51.096;17.190;2022-11-14T01:49:11;101238.72;;;3.63;96.49
41706;BME280;27385;51.096;17.190;2022-11-14T01:51:48;101236.33;;;3.66;96.66
41706;BME280;27385;51.096;17.190;2022-11-14T01:54:23;101233.70;;;3.70;96.62
41706;BME280;27385;51.096;17.190;2022-11-14T01:56:59;101231.95;;;3.71;96.52
41706;BME280;27385;51.096;17.190;2022-11-14T01:59:34;101227.85;;;3.71;96.53
41706;BME280;27385;51.096;17.190;2022-11-14T02:02:09;101228.64;;;3.72;96.45
41706;BME280;27385;51.096;17.190;2022-11-14T02:04:45;101222.40;;;3.70;96.50
41706;BME280;27385;51.096;17.190;2022-11-14T02:07:18;101214.03;;;3.72;96.58
41706;BME280;27385;51.096;17.190;2022-11-14T02:09:50;101210.56;;;3.72;96.49
41706;BME280;27385;51.096;17.190;2022-11-14T02:12:22;101218.36;;;3.73;96.40
41706;BME280;27385;51.096;17.190;2022-11-14T02:14:56;101210.39;;;3.72;96.29
41706;BME280;27385;51.096;17.190;2022-11-14T02:17:29;101204.27;;;3.71;96.45
41706;BME280;27385;51.096;17.190;2022-11-14T02:20:21;101207.55;;;3.72;96.58
41706;BME280;27385;51.096;17.190;2022-11-14T02:22:53;101201.80;;;3.71;96.56
41706;BME280;27385;51.096;17.190;2022-11-14T02:25:25;101200.94;;;3.72;96.72
41706;BME280;27385;51.096;17.190;2022-11-14T02:27:58;101197.14;;;3.72;96.75
41706;BME280;27385;51.096;17.190;2022-11-14T02:30:31;101195.24;;;3.73;96.75
41706;BME280;27385;51.096;17.190;2022-11-14T02:33:03;101189.21;;;3.75;96.79
41706;BME280;27385;51.096;17.190;2022-11-14T02:35:34;101188.64;;;3.78;97.11
41706;BME280;27385;51.096;17.190;2022-11-14T02:38:06;101186.08;;;3.81;97.07
41706;BME280;27385;51.096;17.190;2022-11-14T02:40:37;101188.83;;;3.83;97.19
41706;BME280;27385;51.096;17.190;2022-11-14T02:43:09;101189.45;;;3.83;96.90
41706;BME280;27385;51.096;17.190;2022-11-14T02:45:40;101183.08;;;3.82;96.83
41706;BME280;27385;51.096;17.190;2022-11-14T02:48:11;101178.28;;;3.79;96.94
41706;BME280;27385;51.096;17.190;2022-11-14T02:50:43;101176.15;;;3.79;97.05
41706;BME280;27385;51.096;17.190;2022-11-14T02:53:14;101171.85;;;3.83;97.41
41706;BME280;27385;51.096;17.190;2022-11-14T02:55:46;101170.41;;;3.85;97.28
41706;BME280;27385;51.096;17.190;2022-11-14T02:58:18;101171.91;;;3.86;97.24
41706;BME280;27385;51.096;17.190;2022-11-14T03:00:50;101168.50;;;3.87;97.37
41706;BME280;27385;51.096;17.190;2022-11-14T03:03:21;101172.64;;;3.91;97.58
41706;BME280;27385;51.096;17.190;2022-11-14T03:05:53;101172.63;;;3.93;97.56
41706;BME280;27385;51.096;17.190;2022-11-14T03:08:29;101177.20;;;3.93;97.45
41706;BME280;27385;51.096;17.190;2022-11-14T03:11:07;101174.52;;;3.93;97.62
41706;BME280;27385;51.096;17.190;2022-11-14T03:13:39;101178.27;;;3.95;97.76
41706;BME280;27385;51.096;17.190;2022-11-14T03:16:12;101173.37;;;3.96;97.70
41706;BME280;27385;51.096;17.190;2022-11-14T03:18:45;101179.35;;;3.97;97.79
41706;BME280;27385;51.096;17.190;2022-11-14T03:21:18;101179.52;;;3.98;97.91
41706;BME280;27385;51.096;17.190;2022-11-14T03:23:50;101176.27;;;3.99;97.94
41706;BME280;27385;51.096;17.190;2022-11-14T03:26:22;101174.26;;;4.00;98.15
41706;BME280;27385;51.096;17.190;2022-11-14T03:28:53;101173.91;;;4.04;98.28
41706;BME280;27385;51.096;17.190;2022-11-14T03:31:25;101174.74;;;4.07;98.26
41706;BME280;27385;51.096;17.190;2022-11-14T03:33:58;101174.82;;;4.08;98.30
41706;BME280;27385;51.096;17.190;2022-11-14T03:36:30;101168.02;;;4.08;98.27
41706;BME280;27385;51.096;17.190;2022-11-14T03:39:01;101165.02;;;4.09;98.22
41706;BME280;27385;51.096;17.190;2022-11-14T03:41:33;101159.55;;;4.10;98.29
41706;BME280;27385;51.096;17.190;2022-11-14T03:44:05;101159.45;;;4.12;98.44
41706;BME280;27385;51.096;17.190;2022-11-14T03:46:36;101159.52;;;4.13;98.48
41706;BME280;27385;51.096;17.190;2022-11-14T03:49:07;101158.38;;;4.15;98.47
41706;BME280;27385;51.096;17.190;2022-11-14T03:51:39;101156.63;;;4.17;98.54
41706;BME280;27385;51.096;17.190;2022-11-14T03:54:11;101151.89;;;4.18;98.60
41706;BME280;27385;51.096;17.190;2022-11-14T03:56:42;101148.70;;;4.20;98.67
41706;BME280;27385;51.096;17.190;2022-11-14T03:59:13;101147.56;;;4.22;98.66
41706;BME280;27385;51.096;17.190;2022-11-14T04:01:47;101150.63;;;4.23;98.68
41706;BME280;27385;51.096;17.190;2022-11-14T04:04:20;101150.79;;;4.24;98.77
41706;BME280;27385;51.096;17.190;2022-11-14T04:06:52;101146.89;;;4.26;98.82
41706;BME280;27385;51.096;17.190;2022-11-14T04:09:23;101147.34;;;4.27;98.81
41706;BME280;27385;51.096;17.190;2022-11-14T04:11:55;101150.89;;;4.27;98.80
41706;BME280;27385;51.096;17.190;2022-11-14T04:14:26;101147.14;;;4.31;98.82
41706;BME280;27385;51.096;17.190;2022-11-14T04:16:58;101145.62;;;4.32;98.82
41706;BME280;27385;51.096;17.190;2022-11-14T04:19:29;101142.91;;;4.33;98.91
41706;BME280;27385;51.096;17.190;2022-11-14T04:22:02;101139.04;;;4.34;98.82
41706;BME280;27385;51.096;17.190;2022-11-14T04:24:34;101151.05;;;4.34;98.87
41706;BME280;27385;51.096;17.190;2022-11-14T04:27:05;101158.55;;;4.33;98.95
41706;BME280;27385;51.096;17.190;2022-11-14T04:29:37;101158.07;;;4.34;98.95
41706;BME280;27385;51.096;17.190;2022-11-14T04:32:09;101151.52;;;4.35;99.03
41706;BME280;27385;51.096;17.190;2022-11-14T04:34:41;101153.08;;;4.35;99.07
41706;BME280;27385;51.096;17.190;2022-11-14T04:37:13;101145.42;;;4.35;99.05
41706;BME280;27385;51.096;17.190;2022-11-14T04:39:44;101152.67;;;4.35;99.04
41706;BME280;27385;51.096;17.190;2022-11-14T04:42:16;101157.85;;;4.34;99.01
41706;BME280;27385;51.096;17.190;2022-11-14T04:44:47;101157.66;;;4.35;99.15
41706;BME280;27385;51.096;17.190;2022-11-14T04:47:19;101154.33;;;4.36;99.13
41706;BME280;27385;51.096;17.190;2022-11-14T04:49:50;101152.81;;;4.37;99.19
41706;BME280;27385;51.096;17.190;2022-11-14T04:52:21;101144.02;;;4.39;99.24
41706;BME280;27385;51.096;17.190;2022-11-14T04:54:53;101147.42;;;4.40;99.20
41706;BME280;27385;51.096;17.190;2022-11-14T05:01:23;101132.42;;;4.45;99.35
41706;BME280;27385;51.096;17.190;2022-11-14T05:03:54;101133.23;;;4.43;99.39
41706;BME280;27385;51.096;17.190;2022-11-14T05:06:26;101130.65;;;4.42;99.35
41706;BME280;27385;51.096;17.190;2022-11-14T05:08:59;101128.26;;;4.42;99.40
41706;BME280;27385;51.096;17.190;2022-11-14T05:11:31;101116.61;;;4.45;99.48
41706;BME280;27385;51.096;17.190;2022-11-14T05:14:03;101117.13;;;4.48;99.54
41706;BME280;27385;51.096;17.190;2022-11-14T05:16:34;101115.88;;;4.48;99.51
41706;BME280;27385;51.096;17.190;2022-11-14T05:19:06;101114.05;;;4.48;99.44
41706;BME280;27385;51.096;17.190;2022-11-14T05:21:37;101119.10;;;4.48;99.49
41706;BME280;27385;51.096;17.190;2022-11-14T05:24:09;101110.57;;;4.48;99.44
41706;BME280;27385;51.096;17.190;2022-11-14T05:26:40;101102.66;;;4.49;99.42
41706;BME280;27385;51.096;17.190;2022-11-14T05:29:11;101093.89;;;4.49;99.41
41706;BME280;27385;51.096;17.190;2022-11-14T05:31:43;101089.52;;;4.50;99.50
41706;BME280;27385;51.096;17.190;2022-11-14T05:34:15;101092.88;;;4.53;99.47
41706;BME280;27385;51.096;17.190;2022-11-14T05:36:46;101098.49;;;4.52;99.44
41706;BME280;27385;51.096;17.190;2022-11-14T05:39:18;101105.19;;;4.53;99.45
41706;BME280;27385;51.096;17.190;2022-11-14T05:41:49;101116.77;;;4.56;99.49
41706;BME280;27385;51.096;17.190;2022-11-14T05:44:21;101110.63;;;4.55;99.49
41706;BME280;27385;51.096;17.190;2022-11-14T05:46:52;101104.93;;;4.55;99.41
41706;BME280;27385;51.096;17.190;2022-11-14T05:49:23;101103.34;;;4.56;99.38
41706;BME280;27385;51.096;17.190;2022-11-14T05:51:55;101106.20;;;4.55;99.28
41706;BME280;27385;51.096;17.190;2022-11-14T05:54:26;101103.61;;;4.53;99.33
41706;BME280;27385;51.096;17.190;2022-11-14T05:56:57;101101.40;;;4.54;99.37
41706;BME280;27385;51.096;17.190;2022-11-14T05:59:28;101103.60;;;4.55;99.40
41706;BME280;27385;51.096;17.190;2022-11-14T06:01:59;101106.05;;;4.54;99.26
41706;BME280;27385;51.096;17.190;2022-11-14T06:04:30;101105.02;;;4.54;99.35
41706;BME280;27385;51.096;17.190;2022-11-14T06:07:02;101104.55;;;4.54;99.34
41706;BME280;27385;51.096;17.190;2022-11-14T06:09:33;101110.41;;;4.53;99.37
41706;BME280;27385;51.096;17.190;2022-11-14T06:12:07;101119.34;;;4.53;99.44
41706;BME280;27385;51.096;17.190;2022-11-14T06:14:38;101119.52;;;4.52;99.55
41706;BME280;27385;51.096;17.190;2022-11-14T06:17:11;101130.10;;;4.52;99.57
41706;BME280;27385;51.096;17.190;2022-11-14T06:19:42;101138.48;;;4.52;99.74
41706;BME280;27385;51.096;17.190;2022-11-14T06:22:13;101134.75;;;4.53;99.66
41706;BME280;27385;51.096;17.190;2022-11-14T06:24:44;101129.48;;;4.55;99.76
41706;BME280;27385;51.096;17.190;2022-11-14T06:27:15;101126.49;;;4.56;99.85
41706;BME280;27385;51.096;17.190;2022-11-14T06:29:46;101132.17;;;4.56;99.84
41706;BME280;27385;51.096;17.190;2022-11-14T06:32:17;101138.58;;;4.56;99.87
41706;BME280;27385;51.096;17.190;2022-11-14T06:34:48;101143.80;;;4.56;99.96
41706;BME280;27385;51.096;17.190;2022-11-14T06:37:22;101139.00;;;4.55;99.91
41706;BME280;27385;51.096;17.190;2022-11-14T06:39:54;101131.88;;;4.56;99.97
41706;BME280;27385;51.096;17.190;2022-11-14T06:42:25;101129.23;;;4.58;99.99
41706;BME280;27385;51.096;17.190;2022-11-14T06:44:58;101129.38;;;4.59;100.00
41706;BME280;27385;51.096;17.190;2022-11-14T06:47:29;101131.32;;;4.61;99.99
41706;BME280;27385;51.096;17.190;2022-11-14T06:50:00;101133.59;;;4.63;99.98
41706;BME280;27385;51.096;17.190;2022-11-14T06:52:31;101126.90;;;4.66;100.00
41706;BME280;27385;51.096;17.190;2022-11-14T06:55:02;101126.04;;;4.66;100.00
41706;BME280;27385;51.096;17.190;2022-11-14T06:57:33;101126.95;;;4.68;100.00
41706;BME280;27385;51.096;17.190;2022-11-14T07:00:07;101128.04;;;4.69;100.00
41706;BME280;27385;51.096;17.190;2022-11-14T07:02:39;101120.71;;;4.73;100.00
41706;BME280;27385;51.096;17.190;2022-11-14T07:05:11;101118.61;;;4.75;100.00
41706;BME280;27385;51.096;17.190;2022-11-14T07:07:42;101119.52;;;4.78;100.00
41706;BME280;27385;51.096;17.190;2022-11-14T07:10:13;101117.41;;;4.82;100.00
41706;BME280;27385;51.096;17.190;2022-11-14T07:12:45;101112.45;;;4.86;100.00
41706;BME280;27385;51.096;17.190;2022-11-14T07:15:16;101110.09;;;4.89;100.00
41706;BME280;27385;51.096;17.190;2022-11-14T07:17:48;101115.35;;;4.93;100.00
41706;BME280;27385;51.096;17.190;2022-11-14T07:20:20;101114.98;;;4.95;100.00
41706;BME280;27385;51.096;17.190;2022-11-14T07:22:51;101103.78;;;4.99;100.00
41706;BME280;27385;51.096;17.190;2022-11-14T07:25:22;101098.20;;;5.02;100.00
41706;BME280;27385;51.096;17.190;2022-11-14T07:27:53;101096.64;;;5.05;100.00
41706;BME280;27385;51.096;17.190;2022-11-14T07:30:26;101098.20;;;5.07;100.00
41706;BME280;27385;51.096;17.190;2022-11-14T07:32:57;101100.44;;;5.09;100.00
41706;BME280;27385;51.096;17.190;2022-11-14T07:35:28;101092.68;;;5.10;100.00
41706;BME280;27385;51.096;17.190;2022-11-14T07:38:03;101089.17;;;5.12;100.00
41706;BME280;27385;51.096;17.190;2022-11-14T07:40:35;101086.20;;;5.15;100.00
41706;BME280;27385;51.096;17.190;2022-11-14T07:43:07;101086.16;;;5.17;100.00
41706;BME280;27385;51.096;17.190;2022-11-14T07:45:39;101084.00;;;5.19;100.00
41706;BME280;27385;51.096;17.190;2022-11-14T07:48:10;101083.54;;;5.22;100.00
41706;BME280;27385;51.096;17.190;2022-11-14T07:50:41;101077.84;;;5.26;100.00
41706;BME280;27385;51.096;17.190;2022-11-14T07:53:13;101076.62;;;5.28;100.00
41706;BME280;27385;51.096;17.190;2022-11-14T07:55:46;101078.99;;;5.28;100.00
41706;BME280;27385;51.096;17.190;2022-11-14T07:58:17;101074.83;;;5.31;100.00
41706;BME280;27385;51.096;17.190;2022-11-14T08:00:48;101069.77;;;5.35;100.00
41706;BME280;27385;51.096;17.190;2022-11-14T08:03:20;101069.86;;;5.39;100.00
41706;BME280;27385;51.096;17.190;2022-11-14T08:05:52;101071.38;;;5.42;100.00
41706;BME280;27385;51.096;17.190;2022-11-14T08:08:29;101070.45;;;5.45;100.00
41706;BME280;27385;51.096;17.190;2022-11-14T08:11:02;101078.61;;;5.45;100.00
41706;BME280;27385;51.096;17.190;2022-11-14T08:13:33;101068.84;;;5.47;100.00
41706;BME280;27385;51.096;17.190;2022-11-14T08:16:09;101059.46;;;5.49;100.00
41706;BME280;27385;51.096;17.190;2022-11-14T08:18:40;101064.90;;;5.50;100.00
41706;BME280;27385;51.096;17.190;2022-11-14T08:21:11;101062.27;;;5.50;100.00
41706;BME280;27385;51.096;17.190;2022-11-14T08:23:42;101064.60;;;5.53;100.00
41706;BME280;27385;51.096;17.190;2022-11-14T08:26:14;101061.77;;;5.57;100.00
41706;BME280;27385;51.096;17.190;2022-11-14T08:28:45;101059.60;;;5.59;100.00
41706;BME280;27385;51.096;17.190;2022-11-14T08:31:17;101051.23;;;5.62;100.00
41706;BME280;27385;51.096;17.190;2022-11-14T08:33:51;101047.82;;;5.65;100.00
41706;BME280;27385;51.096;17.190;2022-11-14T08:36:22;101043.88;;;5.69;100.00
41706;BME280;27385;51.096;17.190;2022-11-14T08:38:56;101042.95;;;5.73;100.00
41706;BME280;27385;51.096;17.190;2022-11-14T08:41:28;101043.58;;;5.76;100.00
41706;BME280;27385;51.096;17.190;2022-11-14T08:44:00;101043.66;;;5.77;100.00
41706;BME280;27385;51.096;17.190;2022-11-14T08:46:31;101037.83;;;5.79;100.00
41706;BME280;27385;51.096;17.190;2022-11-14T08:49:02;101033.66;;;5.81;100.00
41706;BME280;27385;51.096;17.190;2022-11-14T08:51:34;101035.80;;;5.81;100.00
41706;BME280;27385;51.096;17.190;2022-11-14T08:54:06;101032.88;;;5.80;100.00
41706;BME280;27385;51.096;17.190;2022-11-14T08:56:40;101028.51;;;5.81;100.00
41706;BME280;27385;51.096;17.190;2022-11-14T08:59:13;101028.01;;;5.82;100.00
41706;BME280;27385;51.096;17.190;2022-11-14T09:01:44;101030.45;;;5.84;100.00
41706;BME280;27385;51.096;17.190;2022-11-14T09:04:15;101032.46;;;5.87;100.00
41706;BME280;27385;51.096;17.190;2022-11-14T09:06:46;101033.63;;;5.88;100.00
41706;BME280;27385;51.096;17.190;2022-11-14T09:09:17;101034.05;;;5.91;100.00
41706;BME280;27385;51.096;17.190;2022-11-14T09:11:48;101034.19;;;5.95;100.00
41706;BME280;27385;51.096;17.190;2022-11-14T09:14:19;101027.38;;;5.98;100.00
41706;BME280;27385;51.096;17.190;2022-11-14T09:16:51;101029.37;;;6.02;100.00
41706;BME280;27385;51.096;17.190;2022-11-14T09:19:23;101033.95;;;6.06;100.00
41706;BME280;27385;51.096;17.190;2022-11-14T09:21:55;101031.92;;;6.08;100.00
41706;BME280;27385;51.096;17.190;2022-11-14T09:24:26;101027.12;;;6.10;100.00
41706;BME280;27385;51.096;17.190;2022-11-14T09:26:57;101020.11;;;6.12;100.00
41706;BME280;27385;51.096;17.190;2022-11-14T09:29:29;101019.90;;;6.15;100.00
41706;BME280;27385;51.096;17.190;2022-11-14T09:32:00;101014.30;;;6.17;100.00
41706;BME280;27385;51.096;17.190;2022-11-14T09:34:32;101002.20;;;6.19;100.00
41706;BME280;27385;51.096;17.190;2022-11-14T09:37:04;100998.98;;;6.21;100.00
41706;BME280;27385;51.096;17.190;2022-11-14T09:39:35;100998.91;;;6.25;100.00
41706;BME280;27385;51.096;17.190;2022-11-14T09:42:25;100999.05;;;6.29;100.00
41706;BME280;27385;51.096;17.190;2022-11-14T09:45:02;100990.80;;;6.33;100.00
41706;BME280;27385;51.096;17.190;2022-11-14T09:47:39;100990.86;;;6.37;100.00
41706;BME280;27385;51.096;17.190;2022-11-14T09:50:14;100989.52;;;6.43;100.00
41706;BME280;27385;51.096;17.190;2022-11-14T09:52:51;100990.68;;;6.47;100.00
41706;BME280;27385;51.096;17.190;2022-11-14T09:55:28;100991.73;;;6.50;100.00
41706;BME280;27385;51.096;17.190;2022-11-14T09:58:01;100994.36;;;6.56;100.00
41706;BME280;27385;51.096;17.190;2022-11-14T10:00:43;100988.63;;;6.60;100.00
41706;BME280;27385;51.096;17.190;2022-11-14T10:03:23;100988.34;;;6.66;100.00
41706;BME280;27385;51.096;17.190;2022-11-14T10:06:11;100984.17;;;6.70;100.00
41706;BME280;27385;51.096;17.190;2022-11-14T10:08:54;100985.55;;;6.72;99.81
41706;BME280;27385;51.096;17.190;2022-11-14T10:11:34;100986.36;;;6.75;99.88
41706;BME280;27385;51.096;17.190;2022-11-14T10:14:32;100983.14;;;6.80;99.94
41706;BME280;27385;51.096;17.190;2022-11-14T10:17:22;100981.05;;;6.84;99.90
41706;BME280;27385;51.096;17.190;2022-11-14T10:20:02;100976.20;;;6.87;99.72
41706;BME280;27385;51.096;17.190;2022-11-14T10:22:53;100976.35;;;6.94;99.88
41706;BME280;27385;51.096;17.190;2022-11-14T10:25:29;100974.81;;;6.98;99.63
41706;BME280;27385;51.096;17.190;2022-11-14T10:28:15;100972.13;;;7.03;99.65
41706;BME280;27385;51.096;17.190;2022-11-14T10:30:55;100968.81;;;7.11;99.92
41706;BME280;27385;51.096;17.190;2022-11-14T10:33:41;100964.94;;;7.20;99.94
41706;BME280;27385;51.096;17.190;2022-11-14T10:36:22;100959.35;;;7.29;99.64
41706;BME280;27385;51.096;17.190;2022-11-14T10:39:02;100951.91;;;7.34;99.35
41706;BME280;27385;51.096;17.190;2022-11-14T10:41:36;100947.02;;;7.39;99.26
41706;BME280;27385;51.096;17.190;2022-11-14T10:44:14;100939.59;;;7.41;99.03
41706;BME280;27385;51.096;17.190;2022-11-14T10:46:52;100934.95;;;7.42;98.82
41706;BME280;27385;51.096;17.190;2022-11-14T10:49:30;100940.23;;;7.41;98.64
41706;BME280;27385;51.096;17.190;2022-11-14T10:52:05;100934.79;;;7.42;98.87
41706;BME280;27385;51.096;17.190;2022-11-14T10:54:43;100934.34;;;7.44;98.95
41706;BME280;27385;51.096;17.190;2022-11-14T10:57:18;100938.73;;;7.48;99.01
41706;BME280;27385;51.096;17.190;2022-11-14T10:59:49;100934.70;;;7.50;99.01
41706;BME280;27385;51.096;17.190;2022-11-14T11:02:21;100936.52;;;7.54;98.96
41706;BME280;27385;51.096;17.190;2022-11-14T11:04:56;100931.61;;;7.59;98.92
41706;BME280;27385;51.096;17.190;2022-11-14T11:07:33;100928.17;;;7.62;98.74
41706;BME280;27385;51.096;17.190;2022-11-14T11:10:42;100920.78;;;7.65;98.86
41706;BME280;27385;51.096;17.190;2022-11-14T11:13:34;100913.05;;;7.68;98.63
41706;BME280;27385;51.096;17.190;2022-11-14T11:16:09;100906.33;;;7.70;98.75
41706;BME280;27385;51.096;17.190;2022-11-14T11:18:41;100905.93;;;7.73;98.81
41706;BME280;27385;51.096;17.190;2022-11-14T11:21:14;100910.75;;;7.78;98.90
41706;BME280;27385;51.096;17.190;2022-11-14T11:23:51;100905.73;;;7.84;98.84
41706;BME280;27385;51.096;17.190;2022-11-14T11:26:25;100900.25;;;7.89;98.81
41706;BME280;27385;51.096;17.190;2022-11-14T11:29:06;100895.35;;;7.93;99.02
41706;BME280;27385;51.096;17.190;2022-11-14T11:31:51;100888.67;;;7.98;98.93
41706;BME280;27385;51.096;17.190;2022-11-14T11:34:25;100891.91;;;8.04;98.91
41706;BME280;27385;51.096;17.190;2022-11-14T11:36:59;100887.90;;;8.07;98.66
41706;BME280;27385;51.096;17.190;2022-11-14T11:39:39;100883.20;;;8.11;98.55
41706;BME280;27385;51.096;17.190;2022-11-14T11:42:17;100876.80;;;8.14;98.47
41706;BME280;27385;51.096;17.190;2022-11-14T11:44:54;100871.66;;;8.16;98.46
41706;BME280;27385;51.096;17.190;2022-11-14T11:47:31;100870.23;;;8.18;98.27
41706;BME280;27385;51.096;17.190;2022-11-14T11:50:10;100865.05;;;8.21;98.40
41706;BME280;27385;51.096;17.190;2022-11-14T11:52:50;100864.89;;;8.27;98.42
41706;BME280;27385;51.096;17.190;2022-11-14T11:55:26;100865.95;;;8.33;98.34
41706;BME280;27385;51.096;17.190;2022-11-14T11:58:06;100860.51;;;8.39;98.28
41706;BME280;27385;51.096;17.190;2022-11-14T12:00:41;100858.38;;;8.45;98.13
41706;BME280;27385;51.096;17.190;2022-11-14T12:03:14;100854.96;;;8.50;97.99
41706;BME280;27385;51.096;17.190;2022-11-14T12:05:52;100853.53;;;8.54;97.83
41706;BME280;27385;51.096;17.190;2022-11-14T12:08:32;100853.83;;;8.57;97.80
41706;BME280;27385;51.096;17.190;2022-11-14T12:11:11;100851.28;;;8.61;97.77
41706;BME280;27385;51.096;17.190;2022-11-14T12:14:14;100845.59;;;8.66;97.69
41706;BME280;27385;51.096;17.190;2022-11-14T12:17:22;100841.34;;;8.69;97.42
41706;BME280;27385;51.096;17.190;2022-11-14T12:20:19;100838.33;;;8.72;97.59
41706;BME280;27385;51.096;17.190;2022-11-14T12:23:11;100842.34;;;8.74;97.41
41706;BME280;27385;51.096;17.190;2022-11-14T12:26:03;100836.72;;;8.75;97.28
41706;BME280;27385;51.096;17.190;2022-11-14T12:28:56;100836.80;;;8.77;97.24
41706;BME280;27385;51.096;17.190;2022-11-14T12:31:34;100831.29;;;8.80;97.16
41706;BME280;27385;51.096;17.190;2022-11-14T12:34:23;100828.77;;;8.82;97.06
41706;BME280;27385;51.096;17.190;2022-11-14T12:36:57;100823.50;;;8.86;97.08
41706;BME280;27385;51.096;17.190;2022-11-14T12:39:31;100823.45;;;8.92;97.10
41706;BME280;27385;51.096;17.190;2022-11-14T12:42:04;100819.58;;;8.96;96.96
41706;BME280;27385;51.096;17.190;2022-11-14T12:44:38;100820.93;;;9.01;96.96
41706;BME280;27385;51.096;17.190;2022-11-14T12:47:19;100818.45;;;9.05;96.76
41706;BME280;27385;51.096;17.190;2022-11-14T12:50:02;100818.94;;;9.09;96.82
41706;BME280;27385;51.096;17.190;2022-11-14T12:52:54;100820.70;;;9.13;96.59
41706;BME280;27385;51.096;17.190;2022-11-14T12:55:55;100815.23;;;9.14;96.46
41706;BME280;27385;51.096;17.190;2022-11-14T12:58:45;100813.59;;;9.15;96.40
41706;BME280;27385;51.096;17.190;2022-11-14T13:01:39;100810.55;;;9.18;96.25
41706;BME280;27385;51.096;17.190;2022-11-14T13:04:29;100810.00;;;9.20;96.44
41706;BME280;27385;51.096;17.190;2022-11-14T13:07:20;100805.87;;;9.22;96.28
41706;BME280;27385;51.096;17.190;2022-11-14T13:10:13;100799.28;;;9.23;96.17
41706;BME280;27385;51.096;17.190;2022-11-14T13:12:58;100797.30;;;9.25;96.05
41706;BME280;27385;51.096;17.190;2022-11-14T13:15:52;100802.00;;;9.27;96.10
41706;BME280;27385;51.096;17.190;2022-11-14T13:18:57;100797.19;;;9.30;96.05
41706;BME280;27385;51.096;17.190;2022-11-14T13:25:16;100788.24;;;9.35;95.85
41706;BME280;27385;51.096;17.190;2022-11-14T13:27:48;100790.27;;;9.38;95.91
41706;BME280;27385;51.096;17.190;2022-11-14T13:30:20;100787.08;;;9.39;95.75
41706;BME280;27385;51.096;17.190;2022-11-14T13:33:43;100784.86;;;9.40;95.67
41706;BME280;27385;51.096;17.190;2022-11-14T13:36:24;100782.90;;;9.41;95.63